Akinaitsat, Greenland

3:31 PM -02 on April 27, 2017 (GMT -0200)
Kulusuk | | Change Station

Elev 121 ft 65.58 °N, 37.15 °W | Updated 41 minutes ago

Mostly Cloudy
Mostly Cloudy
32 °F
Feels Like 22 °F
N
13
Wind Variable Wind from East

Today
High -- | Low -- °F
--% Chance of Precip.
Yesterday
High -- | Low -- °F
Precip. -- in
Pressure 29.42 in
Visibility 6.2 miles
Clouds Few 1000 ft
Mostly Cloudy 2100 ft
Windchill 22 °F
Dew Point 27 °F
Humidity 80%
Rainfall 0.00 in
Snow Depth Not available.
4:04 AM 8:50 PM
New Moon, 2% visible
METAR BGKK 271650Z 08011KT 9999 FEW010 BKN021 00/M03 Q0996
Pressure 29.42 in
Visibility 6.2 miles
Clouds Few 1000 ft
Mostly Cloudy 2100 ft
Windchill 22 °F
Dew Point 27 °F
Humidity 80%
Rainfall 0.00 in
Snow Depth Not available.
4:04 AM 8:50 PM
New Moon, 2% visible
METAR BGKK 271650Z 08011KT 9999 FEW010 BKN021 00/M03 Q0996

Get Severe Weather Alerts

Thanks for signing up!

Be on the lookout for a verification email in your inbox.

You'll start receiving the daily forecast at 8 AM.

×

10-Day Weather Forecast

×

Almanac

Astronomy

Apr. 27, 2017 Rise Set
Actual Time
Civil Twilight
Nautical Twilight
Astronomical Twilight
Moon
Length of Visible Light
Length of Day
Tomorrow will be .
, % of the Moon is Illuminated

Today's Extremes

Country Highs Country Lows

Community

WunderPhotos

WunderBlog® & News

Nearby

Air Quality

  Air Quality AQ Index Pollutant
Not available.

Snow Depth

Station Depth Elevation

Earthquake Activity

City Distance Mag. Time & Date
Minimum magnitude displayed is 2.5.

Coastal Water Temperatures

Place Temperature

Stations

Nearby Weather Stations

Station Location Temp. Windchill Dew Point Humidity Wind Precip. Elev Updated Type